createdAt,value
2022-10-19T00:02:12.708Z,12.60
2022-10-19T00:04:39.435Z,12.60
2022-10-19T00:07:06.218Z,12.70
2022-10-19T00:09:32.954Z,12.70
2022-10-19T00:11:59.743Z,12.70
2022-10-19T00:14:26.570Z,12.60
2022-10-19T00:16:54.683Z,12.70
2022-10-19T00:19:25.191Z,12.70
2022-10-19T00:21:52.650Z,12.70
2022-10-19T00:24:19.936Z,12.70
2022-10-19T00:26:46.680Z,12.80
2022-10-19T00:29:16.741Z,12.80
2022-10-19T00:31:43.692Z,12.70
2022-10-19T00:34:10.557Z,12.70
2022-10-19T00:36:40.147Z,12.70
2022-10-19T00:39:12.552Z,12.70
2022-10-19T00:41:40.509Z,12.80
2022-10-19T00:44:10.224Z,12.80
2022-10-19T00:46:40.279Z,12.90
2022-10-19T00:49:13.391Z,12.90
2022-10-19T00:51:43.834Z,12.80
2022-10-19T00:54:11.696Z,12.80
2022-10-19T00:56:41.403Z,12.80
2022-10-19T00:59:08.947Z,12.90
2022-10-19T01:01:36.056Z,12.80
2022-10-19T01:04:03.850Z,12.80
2022-10-19T01:06:31.099Z,12.70
2022-10-19T01:08:57.771Z,12.80
2022-10-19T01:11:58.534Z,12.80
2022-10-19T01:14:25.296Z,12.90
2022-10-19T01:17:29.804Z,12.80
2022-10-19T01:20:38.121Z,12.80
2022-10-19T01:23:34.816Z,12.80
2022-10-19T01:26:07.388Z,12.80
2022-10-19T01:28:57.252Z,12.70
2022-10-19T01:31:52.416Z,12.70
2022-10-19T01:34:46.356Z,12.70
2022-10-19T01:37:22.037Z,12.60
2022-10-19T01:40:15.739Z,12.70
2022-10-19T01:43:25.436Z,12.60
2022-10-19T01:46:11.979Z,12.60
2022-10-19T01:48:44.782Z,12.60
2022-10-19T01:51:21.003Z,12.50
2022-10-19T01:53:52.424Z,12.60
2022-10-19T01:56:23.624Z,12.60
2022-10-19T01:58:54.036Z,12.60
2022-10-19T02:01:24.117Z,12.70
2022-10-19T02:03:52.763Z,12.60
2022-10-19T02:06:20.632Z,12.70
2022-10-19T02:08:50.294Z,12.70
2022-10-19T02:11:18.358Z,12.60
2022-10-19T02:13:48.418Z,12.60
2022-10-19T02:16:25.108Z,12.70
2022-10-19T02:18:55.056Z,12.70
2022-10-19T02:21:22.067Z,12.70
2022-10-19T02:23:50.578Z,12.70
2022-10-19T02:26:21.664Z,12.80
2022-10-19T02:28:49.014Z,12.80
2022-10-19T02:31:16.067Z,12.90
2022-10-19T02:33:42.895Z,12.80
2022-10-19T02:36:09.653Z,12.80
2022-10-19T02:38:36.485Z,12.80
2022-10-19T02:41:07.036Z,12.70
2022-10-19T02:43:37.736Z,12.80
2022-10-19T02:46:14.601Z,12.80
2022-10-19T02:48:42.836Z,12.80
2022-10-19T02:51:50.472Z,12.80
2022-10-19T02:54:17.219Z,12.80
2022-10-19T02:56:43.892Z,12.80
2022-10-19T02:59:10.624Z,12.90
2022-10-19T03:01:37.373Z,12.90
2022-10-19T03:04:04.267Z,12.90
2022-10-19T03:06:30.995Z,12.90
2022-10-19T03:08:57.773Z,12.80
2022-10-19T03:11:24.481Z,12.80
2022-10-19T03:13:51.223Z,12.80
2022-10-19T03:16:18.164Z,12.90
2022-10-19T03:18:44.988Z,12.90
2022-10-19T03:21:13.259Z,12.90
2022-10-19T03:23:41.484Z,12.90
2022-10-19T03:26:12.422Z,12.90
2022-10-19T03:28:39.414Z,12.90
2022-10-19T03:31:06.329Z,12.90
2022-10-19T03:33:33.042Z,12.90
2022-10-19T03:36:21.002Z,12.90
2022-10-19T03:38:50.393Z,12.90
2022-10-19T03:41:17.281Z,13.00
2022-10-19T03:43:44.045Z,13.00
2022-10-19T03:46:10.858Z,13.00
2022-10-19T03:48:37.612Z,12.90
2022-10-19T03:51:07.320Z,12.90
2022-10-19T03:53:34.804Z,12.90
2022-10-19T03:56:11.638Z,12.90
2022-10-19T03:58:40.043Z,12.90
2022-10-19T04:01:15.878Z,12.90
2022-10-19T04:03:42.749Z,12.90
2022-10-19T04:06:15.853Z,12.90
2022-10-19T04:08:48.057Z,12.80
2022-10-19T04:11:16.405Z,12.80
2022-10-19T04:13:43.125Z,12.80
2022-10-19T04:16:13.293Z,12.90
2022-10-19T04:18:40.037Z,12.90
2022-10-19T04:21:07.382Z,12.90
2022-10-19T04:23:35.924Z,12.90
2022-10-19T04:26:04.833Z,12.90
2022-10-19T04:28:34.951Z,12.80
2022-10-19T04:31:06.226Z,12.80
2022-10-19T04:33:34.460Z,12.90
2022-10-19T04:36:03.235Z,12.90
2022-10-19T04:38:30.611Z,12.90
2022-10-19T04:41:03.210Z,12.80
2022-10-19T04:43:30.036Z,12.80
2022-10-19T04:45:56.836Z,12.90
2022-10-19T04:48:23.583Z,12.80
2022-10-19T04:50:54.129Z,12.80
2022-10-19T04:53:20.927Z,12.70
2022-10-19T04:55:47.872Z,12.70
2022-10-19T04:58:14.609Z,12.70
2022-10-19T05:00:41.404Z,12.70
2022-10-19T05:03:08.247Z,12.70
2022-10-19T05:05:35.287Z,12.70
2022-10-19T05:08:02.421Z,12.70
2022-10-19T05:10:29.168Z,12.70
2022-10-19T05:12:55.960Z,12.70
2022-10-19T05:15:22.948Z,12.70
2022-10-19T05:17:49.628Z,12.70
2022-10-19T05:20:16.446Z,12.70
2022-10-19T05:22:43.162Z,12.70
2022-10-19T05:25:09.845Z,12.70
2022-10-19T05:27:36.779Z,12.70
2022-10-19T05:30:04.561Z,12.70
2022-10-19T05:32:31.255Z,12.70
2022-10-19T05:34:58.155Z,12.70
2022-10-19T05:37:25.767Z,12.70
2022-10-19T05:39:54.254Z,12.70
2022-10-19T05:42:21.066Z,12.70
2022-10-19T05:44:47.781Z,12.70
2022-10-19T05:47:14.620Z,12.80
2022-10-19T05:49:41.411Z,12.70
2022-10-19T05:52:08.145Z,12.70
2022-10-19T05:54:36.067Z,12.70
2022-10-19T05:57:02.942Z,12.80
2022-10-19T05:59:29.635Z,12.80
2022-10-19T06:01:56.312Z,12.80
2022-10-19T06:04:23.164Z,12.80
2022-10-19T06:06:49.927Z,12.80
2022-10-19T06:09:16.737Z,12.80
2022-10-19T06:11:43.844Z,12.80
2022-10-19T06:14:15.653Z,12.80
2022-10-19T06:16:42.768Z,12.80
2022-10-19T06:19:09.608Z,12.80
2022-10-19T06:21:37.822Z,12.80
2022-10-19T06:24:06.488Z,12.80
2022-10-19T06:26:34.709Z,12.70
2022-10-19T06:29:03.278Z,12.80
2022-10-19T06:31:32.261Z,12.80
2022-10-19T06:33:59.457Z,12.80
2022-10-19T06:36:29.969Z,12.80
2022-10-19T06:38:56.969Z,12.80
2022-10-19T06:41:24.028Z,12.80
2022-10-19T06:43:52.251Z,12.80
2022-10-19T06:46:20.694Z,12.80
2022-10-19T06:48:51.503Z,12.90
2022-10-19T06:51:18.671Z,12.90
2022-10-19T06:53:45.635Z,12.90
2022-10-19T06:56:12.350Z,12.90
2022-10-19T06:58:39.532Z,12.90
2022-10-19T07:01:08.730Z,12.90
2022-10-19T07:03:36.635Z,12.90
2022-10-19T07:06:09.076Z,12.90
2022-10-19T07:08:37.557Z,13.00
2022-10-19T07:11:07.620Z,13.00
2022-10-19T07:13:34.716Z,13.00
2022-10-19T07:16:06.720Z,13.00
2022-10-19T07:18:37.479Z,13.00
2022-10-19T07:21:07.583Z,13.10
2022-10-19T07:23:36.545Z,13.10
2022-10-19T07:26:09.620Z,13.10
2022-10-19T07:28:36.400Z,13.10
2022-10-19T07:31:11.587Z,13.10
2022-10-19T07:33:38.631Z,13.20
2022-10-19T07:36:07.866Z,13.20
2022-10-19T07:38:35.808Z,13.20
2022-10-19T07:41:04.090Z,13.20
2022-10-19T07:43:30.956Z,13.30
2022-10-19T07:46:09.460Z,13.20
2022-10-19T07:48:36.301Z,13.30
2022-10-19T07:51:06.062Z,13.30
2022-10-19T07:53:34.606Z,13.40
2022-10-19T07:56:06.797Z,13.40
2022-10-19T07:58:34.380Z,13.40
2022-10-19T08:01:10.295Z,13.50
2022-10-19T08:06:25.286Z,13.60
2022-10-19T08:08:53.502Z,13.60
2022-10-19T08:11:25.838Z,13.60
2022-10-19T08:13:53.180Z,13.60
2022-10-19T08:16:24.713Z,13.60
2022-10-19T08:18:53.096Z,13.60
2022-10-19T08:21:20.171Z,13.50
2022-10-19T08:23:46.927Z,13.60
2022-10-19T08:26:13.709Z,13.70
2022-10-19T08:28:40.606Z,13.70
2022-10-19T08:31:19.308Z,13.70
2022-10-19T08:33:46.744Z,13.80
2022-10-19T08:36:14.354Z,13.80
2022-10-19T08:38:43.602Z,13.80
2022-10-19T08:41:41.224Z,13.80
2022-10-19T08:44:13.992Z,13.90
2022-10-19T08:47:04.491Z,13.80
2022-10-19T08:49:33.204Z,13.90
2022-10-19T08:52:05.358Z,13.90
2022-10-19T08:54:43.805Z,14.00
2022-10-19T08:57:25.657Z,14.00
2022-10-19T09:00:07.837Z,14.00
2022-10-19T09:03:02.256Z,14.20
2022-10-19T09:05:35.051Z,14.20
2022-10-19T09:08:02.321Z,14.20
2022-10-19T09:10:33.579Z,14.30
2022-10-19T09:13:26.734Z,14.20
2022-10-19T09:15:56.139Z,14.30
2022-10-19T09:18:27.846Z,14.40
2022-10-19T09:21:07.367Z,14.30
2022-10-19T09:23:37.074Z,14.40
2022-10-19T09:26:05.746Z,14.50
2022-10-19T09:28:44.824Z,14.60
2022-10-19T09:31:18.283Z,14.50
2022-10-19T09:33:50.196Z,14.50
2022-10-19T09:36:22.976Z,14.50
2022-10-19T09:38:54.549Z,14.40
2022-10-19T09:41:23.489Z,14.40
2022-10-19T09:43:55.983Z,14.50
2022-10-19T09:46:51.971Z,14.50
2022-10-19T09:49:37.928Z,14.50
2022-10-19T09:52:04.722Z,14.50
2022-10-19T09:54:36.293Z,14.50
2022-10-19T09:57:04.722Z,14.60
2022-10-19T09:59:36.104Z,14.60
2022-10-19T10:02:14.816Z,14.70
2022-10-19T10:04:41.549Z,14.70
2022-10-19T10:07:15.644Z,14.80
2022-10-19T10:09:44.779Z,14.90
2022-10-19T10:12:15.190Z,15.00
2022-10-19T10:14:43.811Z,15.10
2022-10-19T10:17:18.180Z,15.10
2022-10-19T10:20:05.232Z,15.20
2022-10-19T10:22:36.973Z,15.20
2022-10-19T10:25:13.671Z,15.20
2022-10-19T10:27:40.579Z,15.30
2022-10-19T10:30:10.420Z,15.40
2022-10-19T10:32:44.423Z,15.60
2022-10-19T10:35:21.190Z,15.70
2022-10-19T10:37:48.305Z,15.90
2022-10-19T10:40:23.237Z,16.30
2022-10-19T10:42:52.653Z,16.40
2022-10-19T10:45:26.084Z,16.50
2022-10-19T10:47:53.760Z,16.20
2022-10-19T10:50:24.083Z,16.10
2022-10-19T10:53:02.876Z,16.10
2022-10-19T10:55:31.135Z,16.20
2022-10-19T10:58:14.062Z,16.30
2022-10-19T11:00:42.110Z,16.30
2022-10-19T11:03:08.816Z,16.30
2022-10-19T11:05:41.560Z,16.30
2022-10-19T11:08:33.698Z,16.10
2022-10-19T11:11:26.490Z,16.10
2022-10-19T11:13:56.471Z,16.20
2022-10-19T11:16:33.171Z,16.10
2022-10-19T11:21:54.245Z,16.00
2022-10-19T11:24:39.442Z,15.90
2022-10-19T11:27:28.947Z,16.00
2022-10-19T11:30:04.046Z,16.10
2022-10-19T11:33:01.548Z,16.20
2022-10-19T11:35:39.167Z,16.10
2022-10-19T11:38:30.103Z,16.10
2022-10-19T11:41:17.768Z,16.20
2022-10-19T11:44:03.922Z,16.30
2022-10-19T11:46:51.748Z,16.20
2022-10-19T11:49:34.520Z,16.10
2022-10-19T11:52:37.406Z,16.00
2022-10-19T11:55:27.252Z,16.00
2022-10-19T11:58:00.330Z,16.00
2022-10-19T12:00:39.101Z,16.00
2022-10-19T12:03:21.196Z,16.00
2022-10-19T12:06:16.122Z,15.90
2022-10-19T12:08:57.891Z,15.90
2022-10-19T12:12:01.720Z,16.00
2022-10-19T12:14:34.493Z,16.10
2022-10-19T12:17:08.678Z,16.10
2022-10-19T12:19:42.541Z,16.10
2022-10-19T12:22:16.871Z,16.10
2022-10-19T12:24:43.702Z,16.20
2022-10-19T12:27:14.995Z,16.20
2022-10-19T12:29:46.286Z,16.30
2022-10-19T12:32:21.919Z,16.40
2022-10-19T12:35:08.595Z,16.40
2022-10-19T12:37:59.956Z,16.50
2022-10-19T12:40:39.875Z,16.50
2022-10-19T12:43:23.470Z,16.60
2022-10-19T12:46:11.738Z,16.50
2022-10-19T12:48:39.248Z,16.60
2022-10-19T12:51:12.198Z,16.70
2022-10-19T12:53:42.910Z,16.70
2022-10-19T12:56:09.628Z,16.80
2022-10-19T12:58:46.595Z,17.00
2022-10-19T13:01:26.007Z,17.10
2022-10-19T13:04:24.666Z,17.40
2022-10-19T13:07:01.627Z,17.40
2022-10-19T13:09:34.002Z,17.50
2022-10-19T13:12:21.928Z,17.60
2022-10-19T13:14:49.001Z,17.80
2022-10-19T13:17:34.694Z,17.90
2022-10-19T13:20:14.258Z,18.20
2022-10-19T13:22:45.568Z,18.30
2022-10-19T13:25:35.095Z,18.30
2022-10-19T13:28:07.697Z,18.10
2022-10-19T13:30:34.347Z,18.00
2022-10-19T13:33:33.303Z,17.90
2022-10-19T13:36:00.210Z,18.10
2022-10-19T13:38:45.907Z,18.40
2022-10-19T13:41:25.997Z,18.30
2022-10-19T13:44:14.974Z,18.40
2022-10-19T13:47:06.861Z,18.20
2022-10-19T13:49:54.298Z,18.30
2022-10-19T13:52:39.037Z,18.10
2022-10-19T13:55:21.972Z,17.70
2022-10-19T13:58:14.028Z,17.40
2022-10-19T14:01:04.679Z,17.50
2022-10-19T14:03:51.673Z,17.30
2022-10-19T14:06:32.232Z,17.10
2022-10-19T14:09:29.514Z,17.00
2022-10-19T14:12:09.094Z,17.10
2022-10-19T14:17:42.760Z,17.10
2022-10-19T14:20:34.755Z,17.10
2022-10-19T14:23:23.331Z,17.00
2022-10-19T14:26:04.038Z,16.90
2022-10-19T14:28:31.880Z,16.90
2022-10-19T14:31:07.841Z,16.90
2022-10-19T14:33:38.566Z,16.90
2022-10-19T14:36:17.472Z,16.80
2022-10-19T14:38:45.144Z,17.00
2022-10-19T14:41:27.098Z,17.10
2022-10-19T14:43:54.698Z,17.00
2022-10-19T14:46:21.472Z,17.00
2022-10-19T14:48:59.096Z,16.80
2022-10-19T14:51:32.276Z,16.70
2022-10-19T14:54:04.942Z,16.60
2022-10-19T14:56:38.161Z,16.60
2022-10-19T14:59:14.072Z,16.50
2022-10-19T15:01:41.147Z,16.40
2022-10-19T15:04:07.967Z,16.40
2022-10-19T15:06:42.428Z,16.40
2022-10-19T15:09:37.131Z,16.40
2022-10-19T15:12:17.559Z,16.20
2022-10-19T15:14:45.251Z,16.20
2022-10-19T15:17:26.351Z,16.10
2022-10-19T15:19:53.783Z,16.00
2022-10-19T15:22:24.043Z,16.00
2022-10-19T15:25:14.072Z,16.00
2022-10-19T15:27:47.172Z,16.00
2022-10-19T15:30:24.735Z,15.90
2022-10-19T15:32:55.057Z,15.90
2022-10-19T15:35:28.574Z,15.80
2022-10-19T15:38:14.628Z,15.80
2022-10-19T15:40:43.789Z,15.70
2022-10-19T15:43:35.259Z,15.70
2022-10-19T15:46:33.760Z,15.70
2022-10-19T15:49:04.326Z,15.70
2022-10-19T15:51:37.600Z,15.60
2022-10-19T15:54:06.862Z,15.60
2022-10-19T15:56:36.494Z,15.50
2022-10-19T15:59:05.896Z,15.40
2022-10-19T16:01:34.328Z,15.40
2022-10-19T16:04:01.356Z,15.30
2022-10-19T16:06:33.479Z,15.30
2022-10-19T16:09:01.237Z,15.30
2022-10-19T16:11:29.935Z,15.20
2022-10-19T16:13:56.757Z,15.10
2022-10-19T16:16:26.210Z,15.10
2022-10-19T16:18:54.219Z,15.00
2022-10-19T16:21:23.893Z,15.00
2022-10-19T16:23:50.768Z,15.00
2022-10-19T16:26:17.602Z,14.90
2022-10-19T16:28:45.156Z,14.90
2022-10-19T16:31:12.400Z,14.90
2022-10-19T16:33:39.112Z,14.90
2022-10-19T16:36:07.395Z,14.90
2022-10-19T16:38:35.054Z,14.90
2022-10-19T16:41:09.270Z,14.90
2022-10-19T16:43:36.822Z,14.80
2022-10-19T16:46:04.272Z,14.70
2022-10-19T16:48:31.196Z,14.70
2022-10-19T16:51:25.767Z,14.60
2022-10-19T16:53:57.157Z,14.60
2022-10-19T16:56:25.645Z,14.50
2022-10-19T16:59:01.908Z,14.40
2022-10-19T17:01:30.133Z,14.40
2022-10-19T17:03:57.585Z,14.30
2022-10-19T17:06:25.545Z,14.30
2022-10-19T17:09:23.680Z,14.20
2022-10-19T17:11:40.592Z,14.10
2022-10-19T17:14:11.943Z,14.20
2022-10-19T17:16:39.781Z,14.10
2022-10-19T17:19:08.175Z,14.10
2022-10-19T17:21:39.281Z,14.10
2022-10-19T17:24:08.763Z,14.00
2022-10-19T17:26:38.124Z,14.00
2022-10-19T17:29:05.997Z,14.00
2022-10-19T17:31:32.802Z,13.90
2022-10-19T17:34:00.764Z,13.90
2022-10-19T17:36:30.747Z,13.80
2022-10-19T17:39:03.955Z,13.90
2022-10-19T17:41:31.237Z,13.80
2022-10-19T17:43:58.322Z,13.90
2022-10-19T17:46:31.160Z,13.90
2022-10-19T17:48:58.449Z,13.90
2022-10-19T17:51:28.931Z,13.90
2022-10-19T17:54:05.170Z,13.90
2022-10-19T17:56:32.282Z,13.90
2022-10-19T17:58:59.542Z,13.80
2022-10-19T18:01:26.882Z,13.90
2022-10-19T18:03:53.662Z,13.90
2022-10-19T18:06:26.326Z,13.90
2022-10-19T18:08:55.403Z,13.90
2022-10-19T18:11:31.441Z,13.80
2022-10-19T18:14:01.020Z,13.90
2022-10-19T18:16:34.234Z,13.90
2022-10-19T18:19:03.656Z,13.80
2022-10-19T18:21:32.653Z,13.80
2022-10-19T18:24:01.516Z,13.70
2022-10-19T18:26:32.334Z,13.70
2022-10-19T18:29:00.440Z,13.70
2022-10-19T18:31:31.527Z,13.70
2022-10-19T18:33:59.804Z,13.60
2022-10-19T18:36:27.100Z,13.60
2022-10-19T18:38:58.132Z,13.50
2022-10-19T18:41:25.316Z,13.50
2022-10-19T18:43:57.563Z,13.40
2022-10-19T18:46:25.430Z,13.30
2022-10-19T18:48:52.487Z,13.30
2022-10-19T18:51:20.846Z,13.30
2022-10-19T18:53:47.772Z,13.20
2022-10-19T18:56:17.710Z,13.10
2022-10-19T18:58:45.179Z,13.10
2022-10-19T19:01:17.793Z,12.90
2022-10-19T19:03:46.887Z,12.90
2022-10-19T19:06:16.708Z,12.80
2022-10-19T19:11:20.211Z,12.70
2022-10-19T19:13:49.172Z,12.60
2022-10-19T19:16:16.035Z,12.60
2022-10-19T19:18:42.780Z,12.50
2022-10-19T19:21:22.175Z,12.50
2022-10-19T19:23:49.856Z,12.50
2022-10-19T19:26:17.253Z,12.40
2022-10-19T19:28:47.624Z,12.30
2022-10-19T19:31:17.626Z,12.30
2022-10-19T19:33:45.923Z,12.20
2022-10-19T19:36:14.036Z,12.20
2022-10-19T19:38:41.185Z,12.10
2022-10-19T19:41:10.976Z,12.10
2022-10-19T19:43:38.771Z,12.00
2022-10-19T19:46:09.547Z,12.00
2022-10-19T19:48:40.789Z,12.00
2022-10-19T19:51:12.435Z,11.90
2022-10-19T19:53:39.756Z,11.80
2022-10-19T19:56:08.174Z,11.80
2022-10-19T19:58:35.350Z,11.80
2022-10-19T20:01:13.484Z,11.80
2022-10-19T20:03:41.660Z,11.70
2022-10-19T20:06:08.852Z,11.60
2022-10-19T20:08:36.933Z,11.60
2022-10-19T20:11:05.930Z,11.60
2022-10-19T20:13:32.736Z,11.60
2022-10-19T20:16:06.259Z,11.50
2022-10-19T20:18:32.926Z,11.40
2022-10-19T20:21:04.025Z,11.40
2022-10-19T20:23:31.303Z,11.40
2022-10-19T20:25:58.054Z,11.40
2022-10-19T20:28:26.280Z,11.40
2022-10-19T20:31:03.884Z,11.30
2022-10-19T20:33:32.542Z,11.30
2022-10-19T20:36:07.923Z,11.30
2022-10-19T20:38:36.268Z,11.20
2022-10-19T20:41:08.201Z,11.20
2022-10-19T20:43:37.123Z,11.10
2022-10-19T20:46:15.876Z,11.10
2022-10-19T20:48:42.688Z,10.90
2022-10-19T20:51:29.126Z,11.00
2022-10-19T20:54:00.026Z,11.00
2022-10-19T20:56:29.135Z,10.90
2022-10-19T20:58:57.841Z,10.90
2022-10-19T21:01:25.118Z,10.80
2022-10-19T21:03:57.478Z,10.80
2022-10-19T21:06:26.369Z,10.70
2022-10-19T21:08:53.603Z,10.70
2022-10-19T21:11:22.358Z,10.70
2022-10-19T21:13:53.499Z,10.60
2022-10-19T21:16:21.766Z,10.60
2022-10-19T21:18:49.603Z,10.60
2022-10-19T21:21:21.586Z,10.50
2022-10-19T21:23:50.920Z,10.50
2022-10-19T21:26:18.164Z,10.50
2022-10-19T21:28:49.244Z,10.50
2022-10-19T21:31:17.798Z,10.40
2022-10-19T21:33:44.657Z,10.40
2022-10-19T21:36:12.693Z,10.40
2022-10-19T21:38:39.613Z,10.40
2022-10-19T21:41:10.334Z,10.30
2022-10-19T21:43:37.067Z,10.30
2022-10-19T21:46:05.539Z,10.30
2022-10-19T21:48:33.524Z,10.30
2022-10-19T21:51:00.732Z,10.30
2022-10-19T21:53:27.482Z,10.30
2022-10-19T21:55:54.435Z,10.20
2022-10-19T21:58:23.971Z,10.30
2022-10-19T22:00:50.780Z,10.30
2022-10-19T22:03:18.960Z,10.30
2022-10-19T22:05:52.589Z,10.30
2022-10-19T22:08:19.474Z,10.30
2022-10-19T22:10:46.185Z,10.30
2022-10-19T22:13:12.912Z,10.20
2022-10-19T22:15:40.830Z,10.10
2022-10-19T22:18:08.080Z,10.10
2022-10-19T22:20:39.277Z,10.00
2022-10-19T22:23:07.401Z,10.00
2022-10-19T22:25:35.371Z,10.00
2022-10-19T22:28:02.263Z,9.90
2022-10-19T22:30:29.274Z,9.90
2022-10-19T22:32:56.031Z,9.80
2022-10-19T22:35:22.807Z,9.80
2022-10-19T22:37:49.543Z,9.60
2022-10-19T22:40:16.317Z,9.60
2022-10-19T22:42:43.083Z,9.60
2022-10-19T22:45:09.788Z,9.60
2022-10-19T22:47:36.538Z,9.60
2022-10-19T22:50:03.897Z,9.60
2022-10-19T22:52:30.654Z,9.50
2022-10-19T22:54:57.418Z,9.60
2022-10-19T22:57:24.105Z,9.60
2022-10-19T22:59:50.840Z,9.50
2022-10-19T23:02:17.535Z,9.60
2022-10-19T23:04:44.218Z,9.50
2022-10-19T23:09:42.531Z,9.50
2022-10-19T23:12:09.217Z,9.50
2022-10-19T23:14:35.923Z,9.40
2022-10-19T23:17:02.658Z,9.40
2022-10-19T23:19:29.387Z,9.40
2022-10-19T23:21:56.105Z,9.40
2022-10-19T23:24:22.896Z,9.30
2022-10-19T23:26:49.664Z,9.30
2022-10-19T23:29:16.363Z,9.30
2022-10-19T23:31:43.559Z,9.30
2022-10-19T23:34:10.311Z,9.30
2022-10-19T23:36:37.055Z,9.30
2022-10-19T23:39:03.854Z,9.20
2022-10-19T23:41:30.549Z,9.30
2022-10-19T23:43:57.246Z,9.40
2022-10-19T23:46:23.970Z,9.40
2022-10-19T23:48:50.898Z,9.50
2022-10-19T23:51:19.969Z,9.60
2022-10-19T23:53:48.639Z,9.60
2022-10-19T23:56:19.522Z,9.60
2022-10-19T23:58:46.982Z,9.70
